sensor_id;sensor_type;location;lat;lon;timestamp;pressure;altitude;pressure_sealevel;temperature;humidity
70954;BME280;58618;47.490;8.736;2023-03-04T00:02:30;96980.78;;;-0.74;100.00
70954;BME280;58618;47.490;8.736;2023-03-04T00:05:17;96968.88;;;-0.80;100.00
70954;BME280;58618;47.490;8.736;2023-03-04T00:08:05;96985.09;;;-0.68;100.00
70954;BME280;58618;47.490;8.736;2023-03-04T00:10:52;96983.50;;;-0.75;100.00
70954;BME280;58618;47.490;8.736;2023-03-04T00:13:39;96988.59;;;-0.69;100.00
70954;BME280;58618;47.490;8.736;2023-03-04T00:16:28;96958.50;;;-0.92;100.00
70954;BME280;58618;47.490;8.736;2023-03-04T00:19:16;96989.69;;;-0.91;100.00
70954;BME280;58618;47.490;8.736;2023-03-04T00:22:03;96993.34;;;-0.94;100.00
70954;BME280;58618;47.490;8.736;2023-03-04T00:24:50;96986.94;;;-0.96;100.00
70954;BME280;58618;47.490;8.736;2023-03-04T00:27:37;96995.09;;;-0.94;100.00
70954;BME280;58618;47.490;8.736;2023-03-04T00:30:25;96983.88;;;-0.78;100.00
70954;BME280;58618;47.490;8.736;2023-03-04T00:33:14;96983.09;;;-0.79;100.00
70954;BME280;58618;47.490;8.736;2023-03-04T00:36:02;96997.88;;;-0.82;100.00
70954;BME280;58618;47.490;8.736;2023-03-04T00:38:50;96994.56;;;-0.83;100.00
70954;BME280;58618;47.490;8.736;2023-03-04T00:41:37;96980.03;;;-1.09;100.00
70954;BME280;58618;47.490;8.736;2023-03-04T00:44:25;96989.28;;;-0.88;100.00
70954;BME280;58618;47.490;8.736;2023-03-04T00:47:12;96993.88;;;-1.05;100.00
70954;BME280;58618;47.490;8.736;2023-03-04T00:50:01;96984.47;;;-1.17;100.00
70954;BME280;58618;47.490;8.736;2023-03-04T00:52:48;96989.91;;;-1.20;100.00
70954;BME280;58618;47.490;8.736;2023-03-04T00:55:36;96992.25;;;-1.19;100.00
70954;BME280;58618;47.490;8.736;2023-03-04T00:58:23;96994.31;;;-1.01;100.00
70954;BME280;58618;47.490;8.736;2023-03-04T01:01:11;96992.00;;;-0.96;100.00
70954;BME280;58618;47.490;8.736;2023-03-04T01:03:58;96974.50;;;-0.91;100.00
70954;BME280;58618;47.490;8.736;2023-03-04T01:06:47;96985.50;;;-1.05;100.00
70954;BME280;58618;47.490;8.736;2023-03-04T01:09:34;96986.09;;;-1.03;100.00
70954;BME280;58618;47.490;8.736;2023-03-04T01:12:21;96984.09;;;-1.14;100.00
70954;BME280;58618;47.490;8.736;2023-03-04T01:15:10;96981.72;;;-1.22;100.00
70954;BME280;58618;47.490;8.736;2023-03-04T01:17:58;96972.13;;;-1.34;100.00
70954;BME280;58618;47.490;8.736;2023-03-04T01:20:45;96968.47;;;-1.24;100.00
70954;BME280;58618;47.490;8.736;2023-03-04T01:23:34;96973.91;;;-1.27;100.00
70954;BME280;58618;47.490;8.736;2023-03-04T01:26:21;96970.00;;;-1.30;100.00
70954;BME280;58618;47.490;8.736;2023-03-04T01:29:09;96966.84;;;-1.39;100.00
70954;BME280;58618;47.490;8.736;2023-03-04T01:31:56;96960.94;;;-1.46;100.00
70954;BME280;58618;47.490;8.736;2023-03-04T01:34:44;96964.09;;;-1.44;100.00
70954;BME280;58618;47.490;8.736;2023-03-04T01:37:31;96969.50;;;-1.47;100.00
70954;BME280;58618;47.490;8.736;2023-03-04T01:40:20;96973.81;;;-1.41;100.00
70954;BME280;58618;47.490;8.736;2023-03-04T01:43:10;96975.78;;;-1.36;100.00
70954;BME280;58618;47.490;8.736;2023-03-04T01:46:02;96970.03;;;-1.23;100.00
70954;BME280;58618;47.490;8.736;2023-03-04T01:48:49;96975.53;;;-1.13;100.00
70954;BME280;58618;47.490;8.736;2023-03-04T01:51:36;96965.72;;;-1.30;100.00
70954;BME280;58618;47.490;8.736;2023-03-04T01:54:24;96966.63;;;-1.37;100.00
70954;BME280;58618;47.490;8.736;2023-03-04T01:57:17;96959.81;;;-1.43;100.00
70954;BME280;58618;47.490;8.736;2023-03-04T02:00:18;96963.84;;;-1.49;100.00
70954;BME280;58618;47.490;8.736;2023-03-04T02:03:08;96967.94;;;-1.48;100.00
70954;BME280;58618;47.490;8.736;2023-03-04T02:05:57;96957.47;;;-1.45;100.00
70954;BME280;58618;47.490;8.736;2023-03-04T02:08:44;96956.28;;;-1.49;100.00
70954;BME280;58618;47.490;8.736;2023-03-04T02:11:32;96961.31;;;-1.49;100.00
70954;BME280;58618;47.490;8.736;2023-03-04T02:14:21;96952.75;;;-1.48;100.00
70954;BME280;58618;47.490;8.736;2023-03-04T02:17:10;96957.34;;;-1.58;100.00
70954;BME280;58618;47.490;8.736;2023-03-04T02:20:02;96948.00;;;-1.64;100.00
70954;BME280;58618;47.490;8.736;2023-03-04T02:23:00;96945.22;;;-1.69;100.00
70954;BME280;58618;47.490;8.736;2023-03-04T02:25:49;96945.22;;;-1.69;100.00
70954;BME280;58618;47.490;8.736;2023-03-04T02:28:42;96941.84;;;-1.55;100.00
70954;BME280;58618;47.490;8.736;2023-03-04T02:31:32;96941.00;;;-1.62;100.00
70954;BME280;58618;47.490;8.736;2023-03-04T02:34:21;96935.47;;;-1.72;100.00
70954;BME280;58618;47.490;8.736;2023-03-04T02:37:10;96929.25;;;-1.76;100.00
70954;BME280;58618;47.490;8.736;2023-03-04T02:39:57;96940.66;;;-1.59;100.00
70954;BME280;58618;47.490;8.736;2023-03-04T02:42:45;96939.06;;;-1.60;100.00
70954;BME280;58618;47.490;8.736;2023-03-04T02:45:39;96934.28;;;-1.76;100.00
70954;BME280;58618;47.490;8.736;2023-03-04T02:48:27;96938.91;;;-1.86;100.00
70954;BME280;58618;47.490;8.736;2023-03-04T02:51:15;96946.47;;;-1.86;100.00
70954;BME280;58618;47.490;8.736;2023-03-04T02:54:02;96936.94;;;-1.84;100.00
70954;BME280;58618;47.490;8.736;2023-03-04T02:56:51;96934.66;;;-1.79;100.00
70954;BME280;58618;47.490;8.736;2023-03-04T02:59:39;96948.63;;;-1.83;100.00
70954;BME280;58618;47.490;8.736;2023-03-04T03:02:28;96942.38;;;-1.87;100.00
70954;BME280;58618;47.490;8.736;2023-03-04T03:05:16;96926.88;;;-2.05;100.00
70954;BME280;58618;47.490;8.736;2023-03-04T03:08:04;96938.06;;;-1.93;100.00
70954;BME280;58618;47.490;8.736;2023-03-04T03:10:52;96943.94;;;-1.86;100.00
70954;BME280;58618;47.490;8.736;2023-03-04T03:13:39;96941.53;;;-1.94;100.00
70954;BME280;58618;47.490;8.736;2023-03-04T03:16:27;96929.50;;;-1.92;100.00
70954;BME280;58618;47.490;8.736;2023-03-04T03:19:15;96941.28;;;-1.78;100.00
70954;BME280;58618;47.490;8.736;2023-03-04T03:22:03;96944.28;;;-1.89;100.00
70954;BME280;58618;47.490;8.736;2023-03-04T03:24:51;96938.50;;;-1.83;100.00
70954;BME280;58618;47.490;8.736;2023-03-04T03:27:38;96934.56;;;-1.92;100.00
70954;BME280;58618;47.490;8.736;2023-03-04T03:30:26;96920.06;;;-2.05;100.00
70954;BME280;58618;47.490;8.736;2023-03-04T03:33:13;96932.75;;;-1.98;100.00
70954;BME280;58618;47.490;8.736;2023-03-04T03:36:02;96938.44;;;-1.96;100.00
70954;BME280;58618;47.490;8.736;2023-03-04T03:38:49;96939.16;;;-2.02;100.00
70954;BME280;58618;47.490;8.736;2023-03-04T03:41:36;96929.41;;;-2.05;100.00
70954;BME280;58618;47.490;8.736;2023-03-04T03:44:24;96922.03;;;-2.00;100.00
70954;BME280;58618;47.490;8.736;2023-03-04T03:47:11;96932.53;;;-2.03;100.00
70954;BME280;58618;47.490;8.736;2023-03-04T03:49:58;96943.59;;;-2.04;100.00
70954;BME280;58618;47.490;8.736;2023-03-04T03:52:47;96937.97;;;-2.06;100.00
70954;BME280;58618;47.490;8.736;2023-03-04T03:55:35;96913.41;;;-2.13;100.00
70954;BME280;58618;47.490;8.736;2023-03-04T03:58:22;96884.94;;;-2.28;100.00
70954;BME280;58618;47.490;8.736;2023-03-04T04:01:09;96931.06;;;-1.91;100.00
70954;BME280;58618;47.490;8.736;2023-03-04T04:03:57;96934.44;;;-2.05;100.00
70954;BME280;58618;47.490;8.736;2023-03-04T04:06:44;96932.59;;;-1.97;100.00
70954;BME280;58618;47.490;8.736;2023-03-04T04:09:33;96926.63;;;-2.10;100.00
70954;BME280;58618;47.490;8.736;2023-03-04T04:12:20;96930.03;;;-2.25;100.00
70954;BME280;58618;47.490;8.736;2023-03-04T04:15:10;96936.25;;;-2.21;100.00
70954;BME280;58618;47.490;8.736;2023-03-04T04:17:57;96902.38;;;-2.33;100.00
70954;BME280;58618;47.490;8.736;2023-03-04T04:20:45;96930.38;;;-2.06;100.00
70954;BME280;58618;47.490;8.736;2023-03-04T04:23:32;96933.25;;;-2.09;100.00
70954;BME280;58618;47.490;8.736;2023-03-04T04:26:21;96923.22;;;-2.24;100.00
70954;BME280;58618;47.490;8.736;2023-03-04T04:29:09;96936.25;;;-2.21;100.00
70954;BME280;58618;47.490;8.736;2023-03-04T04:31:59;96943.59;;;-2.26;100.00
70954;BME280;58618;47.490;8.736;2023-03-04T04:34:46;96945.41;;;-2.20;100.00
70954;BME280;58618;47.490;8.736;2023-03-04T04:37:33;96942.78;;;-2.33;100.00
70954;BME280;58618;47.490;8.736;2023-03-04T04:40:21;96937.84;;;-2.20;100.00
70954;BME280;58618;47.490;8.736;2023-03-04T04:43:09;96944.81;;;-2.22;100.00
70954;BME280;58618;47.490;8.736;2023-03-04T04:45:58;96940.72;;;-2.23;100.00
70954;BME280;58618;47.490;8.736;2023-03-04T04:48:45;96938.94;;;-2.29;100.00
70954;BME280;58618;47.490;8.736;2023-03-04T04:51:34;96941.94;;;-2.40;100.00
70954;BME280;58618;47.490;8.736;2023-03-04T04:54:21;96947.56;;;-2.17;100.00
70954;BME280;58618;47.490;8.736;2023-03-04T04:57:09;96929.66;;;-2.22;100.00
70954;BME280;58618;47.490;8.736;2023-03-04T04:59:58;96930.09;;;-2.18;100.00
70954;BME280;58618;47.490;8.736;2023-03-04T05:02:46;96958.91;;;-2.13;100.00
70954;BME280;58618;47.490;8.736;2023-03-04T05:05:33;96947.09;;;-2.27;100.00
70954;BME280;58618;47.490;8.736;2023-03-04T05:08:20;96948.41;;;-2.31;100.00
70954;BME280;58618;47.490;8.736;2023-03-04T05:11:07;96950.16;;;-2.31;100.00
70954;BME280;58618;47.490;8.736;2023-03-04T05:13:55;96952.75;;;-2.25;100.00
70954;BME280;58618;47.490;8.736;2023-03-04T05:16:43;96950.22;;;-2.25;100.00
70954;BME280;58618;47.490;8.736;2023-03-04T05:19:31;96954.66;;;-2.05;100.00
70954;BME280;58618;47.490;8.736;2023-03-04T05:22:18;96944.47;;;-2.19;100.00
70954;BME280;58618;47.490;8.736;2023-03-04T05:25:06;96947.47;;;-2.30;100.00
70954;BME280;58618;47.490;8.736;2023-03-04T05:27:53;96954.09;;;-2.29;100.00
70954;BME280;58618;47.490;8.736;2023-03-04T05:30:42;96928.81;;;-2.50;100.00
70954;BME280;58618;47.490;8.736;2023-03-04T05:33:31;96960.19;;;-2.38;100.00
70954;BME280;58618;47.490;8.736;2023-03-04T05:36:18;96965.25;;;-2.38;100.00
70954;BME280;58618;47.490;8.736;2023-03-04T05:39:06;96953.47;;;-2.52;100.00
70954;BME280;58618;47.490;8.736;2023-03-04T05:41:53;96963.81;;;-2.47;100.00
70954;BME280;58618;47.490;8.736;2023-03-04T05:44:40;96952.25;;;-2.56;100.00
70954;BME280;58618;47.490;8.736;2023-03-04T05:47:27;96965.50;;;-2.54;100.00
70954;BME280;58618;47.490;8.736;2023-03-04T05:50:17;96959.78;;;-2.41;100.00
70954;BME280;58618;47.490;8.736;2023-03-04T05:53:04;96963.00;;;-2.33;100.00
70954;BME280;58618;47.490;8.736;2023-03-04T05:55:52;96965.94;;;-2.29;100.00
70954;BME280;58618;47.490;8.736;2023-03-04T05:58:39;96959.47;;;-2.32;100.00
70954;BME280;58618;47.490;8.736;2023-03-04T06:01:27;96960.09;;;-2.08;100.00
70954;BME280;58618;47.490;8.736;2023-03-04T06:04:16;96960.63;;;-2.13;100.00
70954;BME280;58618;47.490;8.736;2023-03-04T06:07:05;96953.94;;;-2.21;100.00
70954;BME280;58618;47.490;8.736;2023-03-04T06:09:52;96962.72;;;-2.17;100.00
70954;BME280;58618;47.490;8.736;2023-03-04T06:12:40;96969.72;;;-2.19;100.00
70954;BME280;58618;47.490;8.736;2023-03-04T06:15:28;96958.91;;;-2.13;100.00
70954;BME280;58618;47.490;8.736;2023-03-04T06:18:15;96981.56;;;-1.98;100.00
70954;BME280;58618;47.490;8.736;2023-03-04T06:21:03;96988.13;;;-1.82;100.00
70954;BME280;58618;47.490;8.736;2023-03-04T06:23:52;96981.59;;;-1.70;100.00
70954;BME280;58618;47.490;8.736;2023-03-04T06:26:39;96992.94;;;-1.32;100.00
70954;BME280;58618;47.490;8.736;2023-03-04T06:29:26;96993.81;;;-1.18;100.00
70954;BME280;58618;47.490;8.736;2023-03-04T06:32:14;96991.13;;;-1.10;100.00
70954;BME280;58618;47.490;8.736;2023-03-04T06:35:02;97001.81;;;-0.80;100.00
70954;BME280;58618;47.490;8.736;2023-03-04T06:37:49;97007.34;;;-0.57;100.00
70954;BME280;58618;47.490;8.736;2023-03-04T06:40:38;96999.22;;;-0.39;100.00
70954;BME280;58618;47.490;8.736;2023-03-04T06:43:25;97007.75;;;-0.47;100.00
70954;BME280;58618;47.490;8.736;2023-03-04T06:46:13;97012.06;;;-0.40;100.00
70954;BME280;58618;47.490;8.736;2023-03-04T06:49:00;96998.66;;;-0.34;100.00
70954;BME280;58618;47.490;8.736;2023-03-04T06:51:47;97020.75;;;-0.02;100.00
70954;BME280;58618;47.490;8.736;2023-03-04T06:54:35;97011.78;;;-0.11;100.00
70954;BME280;58618;47.490;8.736;2023-03-04T06:57:24;97021.53;;;-0.08;100.00
70954;BME280;58618;47.490;8.736;2023-03-04T07:00:12;97019.94;;;-0.09;100.00
70954;BME280;58618;47.490;8.736;2023-03-04T07:03:00;97026.22;;;0.02;100.00
70954;BME280;58618;47.490;8.736;2023-03-04T07:05:47;97006.72;;;-0.11;100.00
70954;BME280;58618;47.490;8.736;2023-03-04T07:08:34;97023.47;;;-0.04;100.00
70954;BME280;58618;47.490;8.736;2023-03-04T07:11:22;97005.13;;;-0.12;100.00
70954;BME280;58618;47.490;8.736;2023-03-04T07:14:11;97007.47;;;-0.04;100.00
70954;BME280;58618;47.490;8.736;2023-03-04T07:16:58;96987.19;;;-0.04;100.00
70954;BME280;58618;47.490;8.736;2023-03-04T07:19:45;97027.03;;;0.28;100.00
70954;BME280;58618;47.490;8.736;2023-03-04T07:22:33;97032.47;;;0.32;100.00
70954;BME280;58618;47.490;8.736;2023-03-04T07:25:20;97033.28;;;0.26;100.00
70954;BME280;58618;47.490;8.736;2023-03-04T07:28:08;97033.66;;;0.29;100.00
70954;BME280;58618;47.490;8.736;2023-03-04T07:30:56;97039.13;;;0.39;100.00
70954;BME280;58618;47.490;8.736;2023-03-04T07:33:55;97041.50;;;0.48;100.00
70954;BME280;58618;47.490;8.736;2023-03-04T07:36:43;97007.91;;;0.32;100.00
70954;BME280;58618;47.490;8.736;2023-03-04T07:39:30;97041.06;;;0.64;100.00
70954;BME280;58618;47.490;8.736;2023-03-04T07:42:17;97029.97;;;0.65;100.00
70954;BME280;58618;47.490;8.736;2023-03-04T07:45:06;97042.25;;;0.81;100.00
70954;BME280;58618;47.490;8.736;2023-03-04T07:47:56;97038.50;;;0.97;100.00
70954;BME280;58618;47.490;8.736;2023-03-04T07:50:44;97042.38;;;1.12;100.00
70954;BME280;58618;47.490;8.736;2023-03-04T07:53:31;97051.94;;;1.23;100.00
70954;BME280;58618;47.490;8.736;2023-03-04T07:56:20;97044.28;;;1.37;100.00
70954;BME280;58618;47.490;8.736;2023-03-04T07:59:08;97036.25;;;1.46;100.00
70954;BME280;58618;47.490;8.736;2023-03-04T08:01:55;97030.00;;;1.42;100.00
70954;BME280;58618;47.490;8.736;2023-03-04T08:04:43;97034.66;;;1.52;100.00
70954;BME280;58618;47.490;8.736;2023-03-04T08:07:31;97004.97;;;1.46;100.00
70954;BME280;58618;47.490;8.736;2023-03-04T08:10:19;97037.28;;;1.70;100.00
70954;BME280;58618;47.490;8.736;2023-03-04T08:13:06;97044.63;;;1.91;100.00
70954;BME280;58618;47.490;8.736;2023-03-04T08:15:54;97041.03;;;2.05;100.00
70954;BME280;58618;47.490;8.736;2023-03-04T08:18:43;97031.09;;;2.29;100.00
70954;BME280;58618;47.490;8.736;2023-03-04T08:21:32;97028.72;;;2.34;100.00
70954;BME280;58618;47.490;8.736;2023-03-04T08:24:20;97029.88;;;2.38;100.00
70954;BME280;58618;47.490;8.736;2023-03-04T08:27:07;97034.91;;;2.69;100.00
70954;BME280;58618;47.490;8.736;2023-03-04T08:29:54;97040.47;;;3.03;100.00
70954;BME280;58618;47.490;8.736;2023-03-04T08:32:42;97033.97;;;3.25;100.00
70954;BME280;58618;47.490;8.736;2023-03-04T08:35:29;97026.63;;;3.65;100.00
70954;BME280;58618;47.490;8.736;2023-03-04T08:38:18;97038.56;;;4.01;100.00
70954;BME280;58618;47.490;8.736;2023-03-04T08:41:06;97021.44;;;4.31;100.00
70954;BME280;58618;47.490;8.736;2023-03-04T08:43:54;97022.25;;;4.78;98.46
70954;BME280;58618;47.490;8.736;2023-03-04T08:46:42;97034.03;;;4.67;98.12
70954;BME280;58618;47.490;8.736;2023-03-04T08:49:29;97017.69;;;4.92;97.75
70954;BME280;58618;47.490;8.736;2023-03-04T08:52:17;97043.47;;;5.02;95.14
70954;BME280;58618;47.490;8.736;2023-03-04T08:55:06;97039.25;;;4.96;93.57
70954;BME280;58618;47.490;8.736;2023-03-04T08:57:53;97039.50;;;5.46;90.00
70954;BME280;58618;47.490;8.736;2023-03-04T09:00:43;97039.38;;;5.13;92.36
70954;BME280;58618;47.490;8.736;2023-03-04T09:03:33;97033.81;;;5.56;90.42
70954;BME280;58618;47.490;8.736;2023-03-04T09:06:20;97038.81;;;5.50;89.55
70954;BME280;58618;47.490;8.736;2023-03-04T09:09:07;97031.53;;;6.11;88.78
70954;BME280;58618;47.490;8.736;2023-03-04T09:11:56;97031.81;;;5.58;89.08
70954;BME280;58618;47.490;8.736;2023-03-04T09:14:43;97023.19;;;5.75;89.51
70954;BME280;58618;47.490;8.736;2023-03-04T09:17:31;97033.81;;;5.56;86.78
70954;BME280;58618;47.490;8.736;2023-03-04T09:20:19;97022.94;;;5.48;90.31
70954;BME280;58618;47.490;8.736;2023-03-04T09:23:08;97025.63;;;6.10;87.48
70954;BME280;58618;47.490;8.736;2023-03-04T09:25:55;97022.88;;;6.28;85.96
70954;BME280;58618;47.490;8.736;2023-03-04T09:28:44;97008.25;;;6.46;85.91
70954;BME280;58618;47.490;8.736;2023-03-04T09:31:32;97016.38;;;5.81;86.49
70954;BME280;58618;47.490;8.736;2023-03-04T09:34:19;97014.13;;;5.84;88.45
70954;BME280;58618;47.490;8.736;2023-03-04T09:37:06;97013.53;;;6.22;85.31
70954;BME280;58618;47.490;8.736;2023-03-04T09:39:54;96992.28;;;6.39;81.83
70954;BME280;58618;47.490;8.736;2023-03-04T09:42:43;97011.13;;;5.87;85.42
70954;BME280;58618;47.490;8.736;2023-03-04T09:45:17;97006.09;;;5.92;84.92
70954;BME280;58618;47.490;8.736;2023-03-04T09:47:46;97010.59;;;6.30;84.97
70954;BME280;58618;47.490;8.736;2023-03-04T09:50:15;97005.69;;;6.79;82.08
70954;BME280;58618;47.490;8.736;2023-03-04T09:52:55;97006.75;;;6.83;83.09
70954;BME280;58618;47.490;8.736;2023-03-04T09:55:32;97011.03;;;6.77;85.98
70954;BME280;58618;47.490;8.736;2023-03-04T09:58:10;97000.63;;;6.67;83.03
70954;BME280;58618;47.490;8.736;2023-03-04T10:00:43;96992.97;;;7.06;81.39
70954;BME280;58618;47.490;8.736;2023-03-04T10:03:14;96995.88;;;7.14;80.98
70954;BME280;58618;47.490;8.736;2023-03-04T10:05:48;96987.84;;;6.51;82.19
70954;BME280;58618;47.490;8.736;2023-03-04T10:08:44;96987.44;;;6.25;85.40
70954;BME280;58618;47.490;8.736;2023-03-04T10:11:19;96993.72;;;6.68;83.45
70954;BME280;58618;47.490;8.736;2023-03-04T10:13:55;96984.97;;;6.64;82.34
70954;BME280;58618;47.490;8.736;2023-03-04T10:16:31;96998.91;;;6.90;81.15
70954;BME280;58618;47.490;8.736;2023-03-04T10:19:05;96980.34;;;6.83;82.75
70954;BME280;58618;47.490;8.736;2023-03-04T10:21:44;96981.59;;;6.80;82.48
70954;BME280;58618;47.490;8.736;2023-03-04T10:24:12;96986.03;;;7.06;81.85
70954;BME280;58618;47.490;8.736;2023-03-04T10:26:44;96964.88;;;6.77;82.17
70954;BME280;58618;47.490;8.736;2023-03-04T10:29:14;96984.66;;;7.42;79.85
70954;BME280;58618;47.490;8.736;2023-03-04T10:31:44;96989.00;;;7.63;78.50
70954;BME280;58618;47.490;8.736;2023-03-04T10:34:12;96980.47;;;7.58;78.03
70954;BME280;58618;47.490;8.736;2023-03-04T10:36:51;96984.97;;;7.46;79.10
70954;BME280;58618;47.490;8.736;2023-03-04T10:39:25;96984.66;;;7.64;78.14
70954;BME280;58618;47.490;8.736;2023-03-04T10:41:56;96979.38;;;7.49;78.70
70954;BME280;58618;47.490;8.736;2023-03-04T10:44:24;96979.59;;;7.04;79.77
70954;BME280;58618;47.490;8.736;2023-03-04T10:46:54;96976.91;;;7.37;80.33
70954;BME280;58618;47.490;8.736;2023-03-04T10:49:22;96970.03;;;7.64;79.89
70954;BME280;58618;47.490;8.736;2023-03-04T10:51:52;96963.44;;;7.74;78.71
70954;BME280;58618;47.490;8.736;2023-03-04T10:54:28;96960.13;;;7.78;77.23
70954;BME280;58618;47.490;8.736;2023-03-04T10:56:58;96966.44;;;7.92;77.50
70954;BME280;58618;47.490;8.736;2023-03-04T10:59:41;96960.69;;;7.80;75.94
70954;BME280;58618;47.490;8.736;2023-03-04T11:02:23;96960.53;;;7.65;77.82
70954;BME280;58618;47.490;8.736;2023-03-04T11:04:56;96934.66;;;7.45;77.94
70954;BME280;58618;47.490;8.736;2023-03-04T11:07:30;96958.13;;;7.80;76.43
70954;BME280;58618;47.490;8.736;2023-03-04T11:10:07;96948.97;;;7.41;79.06
70954;BME280;58618;47.490;8.736;2023-03-04T11:12:34;96912.13;;;7.03;78.41
70954;BME280;58618;47.490;8.736;2023-03-04T11:15:03;96937.34;;;7.55;79.13
70954;BME280;58618;47.490;8.736;2023-03-04T11:17:47;96941.59;;;7.71;79.02
70954;BME280;58618;47.490;8.736;2023-03-04T11:20:24;96933.50;;;7.57;77.67
70954;BME280;58618;47.490;8.736;2023-03-04T11:22:54;96939.03;;;7.44;77.80
70954;BME280;58618;47.490;8.736;2023-03-04T11:25:25;96932.06;;;7.67;77.40
70954;BME280;58618;47.490;8.736;2023-03-04T11:27:54;96932.06;;;7.67;77.48
70954;BME280;58618;47.490;8.736;2023-03-04T11:30:28;96921.97;;;7.60;77.16
70954;BME280;58618;47.490;8.736;2023-03-04T11:33:09;96926.44;;;7.21;77.92
70954;BME280;58618;47.490;8.736;2023-03-04T11:35:43;96898.47;;;7.19;78.75
70954;BME280;58618;47.490;8.736;2023-03-04T11:38:16;96912.94;;;7.31;77.87
70954;BME280;58618;47.490;8.736;2023-03-04T11:40:49;96915.19;;;7.49;78.05
70954;BME280;58618;47.490;8.736;2023-03-04T11:43:22;96915.34;;;7.64;77.82
70954;BME280;58618;47.490;8.736;2023-03-04T11:46:20;96910.75;;;7.66;77.31
70954;BME280;58618;47.490;8.736;2023-03-04T11:49:41;96911.81;;;7.70;75.43
70954;BME280;58618;47.490;8.736;2023-03-04T11:52:45;96913.44;;;7.81;75.97
70954;BME280;58618;47.490;8.736;2023-03-04T11:55:43;96908.66;;;7.95;75.18
70954;BME280;58618;47.490;8.736;2023-03-04T12:01:53;96909.41;;;8.27;74.04
70954;BME280;58618;47.490;8.736;2023-03-04T12:05:04;96905.63;;;8.30;72.07
70954;BME280;58618;47.490;8.736;2023-03-04T12:08:25;96886.59;;;8.31;72.74
70954;BME280;58618;47.490;8.736;2023-03-04T12:11:23;96890.41;;;8.70;70.67
70954;BME280;58618;47.490;8.736;2023-03-04T12:14:20;96890.06;;;8.52;71.55
70954;BME280;58618;47.490;8.736;2023-03-04T12:17:23;96884.28;;;8.76;71.56
70954;BME280;58618;47.490;8.736;2023-03-04T12:20:43;96882.25;;;8.88;70.77
70954;BME280;58618;47.490;8.736;2023-03-04T12:23:55;96873.09;;;9.18;68.59
70954;BME280;58618;47.490;8.736;2023-03-04T12:26:57;96842.41;;;8.96;69.79
70954;BME280;58618;47.490;8.736;2023-03-04T12:29:55;96862.06;;;9.27;68.98
70954;BME280;58618;47.490;8.736;2023-03-04T12:32:50;96853.06;;;9.25;68.17
70954;BME280;58618;47.490;8.736;2023-03-04T12:35:51;96845.25;;;9.05;68.81
70954;BME280;58618;47.490;8.736;2023-03-04T12:38:51;96847.84;;;9.05;69.76
70954;BME280;58618;47.490;8.736;2023-03-04T12:41:49;96840.09;;;8.95;69.83
70954;BME280;58618;47.490;8.736;2023-03-04T12:44:45;96842.84;;;8.73;71.94
70954;BME280;58618;47.490;8.736;2023-03-04T12:47:43;96844.91;;;8.71;71.11
70954;BME280;58618;47.490;8.736;2023-03-04T12:50:39;96835.81;;;8.53;71.59
70954;BME280;58618;47.490;8.736;2023-03-04T12:53:33;96832.75;;;8.51;70.64
70954;BME280;58618;47.490;8.736;2023-03-04T12:56:26;96830.19;;;8.51;70.10
70954;BME280;58618;47.490;8.736;2023-03-04T12:59:17;96823.75;;;8.54;69.52
70954;BME280;58618;47.490;8.736;2023-03-04T13:02:20;96801.91;;;8.56;68.30
70954;BME280;58618;47.490;8.736;2023-03-04T13:05:22;96807.63;;;8.73;67.42
70954;BME280;58618;47.490;8.736;2023-03-04T13:08:20;96807.63;;;8.78;66.29
70954;BME280;58618;47.490;8.736;2023-03-04T13:15:15;96801.50;;;8.89;65.53
70954;BME280;58618;47.490;8.736;2023-03-04T13:18:31;96798.38;;;8.77;65.95
70954;BME280;58618;47.490;8.736;2023-03-04T13:21:22;96798.41;;;8.87;65.16
70954;BME280;58618;47.490;8.736;2023-03-04T13:24:44;96796.38;;;9.10;66.13
70954;BME280;58618;47.490;8.736;2023-03-04T13:27:46;96789.19;;;9.07;65.64
70954;BME280;58618;47.490;8.736;2023-03-04T13:33:56;96772.19;;;9.06;65.56
70954;BME280;58618;47.490;8.736;2023-03-04T13:36:55;96774.75;;;8.96;66.03
70954;BME280;58618;47.490;8.736;2023-03-04T13:39:42;96776.84;;;9.04;64.71
70954;BME280;58618;47.490;8.736;2023-03-04T13:42:40;96773.75;;;9.07;65.40
70954;BME280;58618;47.490;8.736;2023-03-04T13:45:31;96771.69;;;9.04;63.94
70954;BME280;58618;47.490;8.736;2023-03-04T13:48:27;96768.06;;;9.00;63.60
70954;BME280;58618;47.490;8.736;2023-03-04T13:51:16;96765.47;;;8.79;64.54
70954;BME280;58618;47.490;8.736;2023-03-04T13:54:13;96767.03;;;9.01;65.79
70954;BME280;58618;47.490;8.736;2023-03-04T13:57:14;96762.66;;;9.01;63.19
70954;BME280;58618;47.490;8.736;2023-03-04T14:00:03;96758.84;;;9.09;64.80
70954;BME280;58618;47.490;8.736;2023-03-04T14:02:53;96761.66;;;9.12;63.67
70954;BME280;58618;47.490;8.736;2023-03-04T14:05:42;96737.19;;;9.05;64.33
70954;BME280;58618;47.490;8.736;2023-03-04T14:08:29;96761.41;;;9.14;62.40
70954;BME280;58618;47.490;8.736;2023-03-04T14:11:25;96752.63;;;9.15;61.97
70954;BME280;58618;47.490;8.736;2023-03-04T14:14:16;96762.97;;;9.25;63.10
70954;BME280;58618;47.490;8.736;2023-03-04T14:17:05;96745.69;;;9.20;62.47
70954;BME280;58618;47.490;8.736;2023-03-04T14:19:53;96752.69;;;9.35;63.60
70954;BME280;58618;47.490;8.736;2023-03-04T14:22:42;96767.59;;;9.28;60.74
70954;BME280;58618;47.490;8.736;2023-03-04T14:25:30;96744.66;;;9.37;62.08
70954;BME280;58618;47.490;8.736;2023-03-04T14:28:19;96752.66;;;9.40;59.69
70954;BME280;58618;47.490;8.736;2023-03-04T14:31:14;96740.81;;;9.29;59.97
70954;BME280;58618;47.490;8.736;2023-03-04T14:34:03;96743.91;;;9.36;60.67
70954;BME280;58618;47.490;8.736;2023-03-04T14:36:50;96723.84;;;9.23;59.40
70954;BME280;58618;47.490;8.736;2023-03-04T14:39:39;96717.38;;;9.15;61.62
70954;BME280;58618;47.490;8.736;2023-03-04T14:42:34;96739.03;;;9.19;60.45
70954;BME280;58618;47.490;8.736;2023-03-04T14:45:24;96698.09;;;8.93;61.44
70954;BME280;58618;47.490;8.736;2023-03-04T14:48:17;96734.63;;;9.10;62.83
70954;BME280;58618;47.490;8.736;2023-03-04T14:51:28;96727.97;;;9.09;62.55
70954;BME280;58618;47.490;8.736;2023-03-04T14:54:30;96727.44;;;9.12;63.45
70954;BME280;58618;47.490;8.736;2023-03-04T14:57:25;96720.25;;;9.09;63.61
70954;BME280;58618;47.490;8.736;2023-03-04T15:00:22;96719.72;;;9.07;61.88